Time;durP1;ratioP1;P1;durP2;ratioP2;P2;SDS_P1;SDS_P2;PMS_P1;PMS_P2;Temp;Humidity;BMP_temperature;BMP_pressure;BME280_temperature;BME280_humidity;BME280_pressure;Samples;Min_cycle;Max_cycle;Signal;HPM_P1;HPM_P2
2022/09/07 00:01:08;;;;;;;3.95;2.80;;;18.60;85.30;;;;;;5075369;28;20475;-39
2022/09/07 00:03:34;;;;;;;3.22;2.30;;;18.50;85.20;;;;;;5075743;28;20033;-34
2022/09/07 00:06:05;;;;;;;4.15;2.80;;;18.50;85.40;;;;;;5075966;28;20047;-34
2022/09/07 00:08:31;;;;;;;3.00;2.55;;;18.40;85.90;;;;;;5075922;28;20031;-34
2022/09/07 00:11:00;;;;;;;2.85;2.55;;;18.40;85.80;;;;;;5075329;28;20024;-34
2022/09/07 00:13:28;;;;;;;2.95;2.55;;;18.40;86.00;;;;;;5075897;28;20051;-35
2022/09/07 00:15:54;;;;;;;3.47;2.58;;;18.30;86.30;;;;;;5075547;28;20017;-41
2022/09/07 00:18:21;;;;;;;3.15;2.30;;;18.30;86.20;;;;;;5075675;28;20056;-34
2022/09/07 00:20:46;;;;;;;3.15;2.47;;;18.20;86.20;;;;;;5075127;28;20025;-34
2022/09/07 00:23:12;;;;;;;4.03;2.60;;;18.20;86.30;;;;;;5075580;28;20036;-34
2022/09/07 00:25:39;;;;;;;5.18;2.30;;;18.30;86.20;;;;;;5074875;28;20024;-35
2022/09/07 00:28:06;;;;;;;3.90;1.98;;;18.30;86.20;;;;;;5075036;28;20016;-34
2022/09/07 00:30:33;;;;;;;3.10;1.73;;;18.30;86.00;;;;;;5075123;28;20020;-35
2022/09/07 00:32:59;;;;;;;4.15;1.80;;;18.40;85.90;;;;;;5073620;28;20020;-46
2022/09/07 00:35:25;;;;;;;2.70;1.70;;;18.50;86.50;;;;;;5074888;28;20074;-34
2022/09/07 00:37:51;;;;;;;1.92;1.70;;;18.50;85.70;;;;;;5074806;28;20024;-35
2022/09/07 00:40:16;;;;;;;1.95;1.70;;;18.50;85.60;;;;;;5073533;28;20428;-34
2022/09/07 00:42:42;;;;;;;2.45;1.63;;;18.50;85.60;;;;;;5074665;28;20036;-35
2022/09/07 00:45:20;;;;;;;2.13;1.67;;;18.50;85.70;;;;;;5074571;28;20029;-36
2022/09/07 00:48:03;;;;;;;2.75;1.73;;;18.40;85.60;;;;;;5074768;28;20395;-35
2022/09/07 00:50:34;;;;;;;1.73;1.60;;;18.40;85.60;;;;;;5074442;28;20029;-35
2022/09/07 00:53:18;;;;;;;2.63;1.80;;;18.40;85.50;;;;;;5074383;28;20016;-36
2022/09/07 00:55:47;;;;;;;2.33;1.70;;;18.40;85.40;;;;;;5074420;28;20111;-36
2022/09/07 00:58:13;;;;;;;3.97;1.80;;;18.40;85.30;;;;;;5074403;28;20460;-36
2022/09/07 01:00:40;;;;;;;2.17;1.60;;;18.40;85.40;;;;;;5074511;28;20025;-35
2022/09/07 01:03:07;;;;;;;2.92;1.60;;;18.50;85.50;;;;;;5074931;28;20356;-35
2022/09/07 01:05:45;;;;;;;2.22;1.50;;;18.50;85.40;;;;;;5073948;28;20020;-35
2022/09/07 01:08:12;;;;;;;2.08;1.50;;;18.50;85.30;;;;;;5073875;28;20024;-34
2022/09/07 01:10:38;;;;;;;1.35;1.15;;;18.50;85.20;;;;;;5073025;28;20021;-35
2022/09/07 01:13:04;;;;;;;1.77;1.30;;;18.50;85.10;;;;;;5073939;28;20040;-35
2022/09/07 01:15:40;;;;;;;1.58;1.27;;;18.50;85.10;;;;;;5073726;28;20082;-34
2022/09/07 01:18:09;;;;;;;1.33;1.23;;;18.50;85.00;;;;;;5073716;28;20029;-35
2022/09/07 01:20:53;;;;;;;1.98;1.42;;;18.50;84.90;;;;;;5073923;28;20020;-34
2022/09/07 01:23:30;;;;;;;1.38;1.25;;;18.50;84.80;;;;;;5073935;28;20368;-35
2022/09/07 01:26:08;;;;;;;2.33;1.33;;;18.50;84.70;;;;;;5072313;28;20021;-34
2022/09/07 01:28:35;;;;;;;1.38;1.20;;;18.50;84.70;;;;;;5073699;28;20119;-34
2022/09/07 01:31:23;;;;;;;1.85;0.93;;;18.40;84.60;;;;;;5073733;28;20053;-34
2022/09/07 01:34:06;;;;;;;1.13;0.95;;;18.40;84.60;;;;;;5073449;28;20131;-35
2022/09/07 01:36:58;;;;;;;;;;;18.40;84.50;;;;;;5073738;28;20032;-44
2022/09/07 01:39:29;;;;;;;4.03;1.13;;;18.40;84.40;;;;;;5072890;28;20038;-35
2022/09/07 01:42:10;;;;;;;1.40;1.17;;;18.40;84.50;;;;;;5073387;28;20070;-35
2022/09/07 01:44:45;;;;;;;1.05;0.90;;;18.50;84.60;;;;;;5072975;28;20029;-35
2022/09/07 01:47:46;;;;;;;0.90;0.90;;;18.50;84.50;;;;;;5072750;28;20040;-34
2022/09/07 01:50:34;;;;;;;2.00;0.93;;;18.50;84.50;;;;;;5070455;28;20480;-34
2022/09/07 01:53:15;;;;;;;1.42;1.00;;;18.50;84.30;;;;;;5072884;28;20020;-35
2022/09/07 01:56:09;;;;;;;1.48;1.10;;;18.50;84.30;;;;;;5072829;28;20025;-35
2022/09/07 01:59:01;;;;;;;1.30;0.70;;;18.50;84.30;;;;;;5073028;28;20031;-35
2022/09/07 02:01:50;;;;;;;1.23;1.00;;;18.50;84.20;;;;;;5073113;28;20337;-35
2022/09/07 02:04:30;;;;;;;1.38;0.98;;;18.50;84.20;;;;;;5073136;28;20025;-36
2022/09/07 02:07:06;;;;;;;2.75;0.98;;;18.50;84.20;;;;;;5073344;28;20046;-35
2022/09/07 02:09:37;;;;;;;1.63;0.77;;;18.50;84.20;;;;;;5072914;28;20017;-35
2022/09/07 02:12:15;;;;;;;1.58;0.90;;;18.50;84.00;;;;;;5072952;28;20044;-35
2022/09/07 02:14:45;;;;;;;1.50;0.82;;;18.60;84.00;;;;;;5071589;28;20484;-35
2022/09/07 02:17:18;;;;;;;1.33;0.80;;;18.60;84.00;;;;;;5072773;28;20435;-34
2022/09/07 02:19:53;;;;;;;1.13;1.00;;;18.60;83.90;;;;;;5073100;28;20024;-36
2022/09/07 02:22:25;;;;;;;0.98;0.68;;;18.60;83.80;;;;;;5072432;28;20056;-34
2022/09/07 02:24:54;;;;;;;1.00;0.90;;;18.50;83.80;;;;;;5072713;28;20024;-35
2022/09/07 02:27:49;;;;;;;0.95;0.90;;;18.50;83.90;;;;;;5072563;28;20021;-35
2022/09/07 02:30:16;;;;;;;1.85;0.90;;;18.50;83.90;;;;;;5072415;28;20032;-35
2022/09/07 02:32:42;;;;;;;1.20;1.10;;;18.40;83.80;;;;;;5072767;28;20052;-35
2022/09/07 02:35:08;;;;;;;2.08;1.05;;;18.40;83.90;;;;;;5072293;28;20399;-36
2022/09/07 02:37:35;;;;;;;1.58;1.02;;;18.40;83.80;;;;;;5072648;28;20020;-35
2022/09/07 02:40:02;;;;;;;1.58;0.90;;;18.40;83.90;;;;;;5072365;28;20025;-35
2022/09/07 02:42:33;;;;;;;1.52;1.00;;;18.30;83.90;;;;;;5072248;28;20474;-35
2022/09/07 02:45:00;;;;;;;2.25;1.13;;;18.30;83.90;;;;;;5072353;28;20369;-36
2022/09/07 02:48:10;;;;;;;1.63;1.00;;;18.30;84.00;;;;;;5072136;28;20051;-36
2022/09/07 02:50:51;;;;;;;1.00;0.90;;;18.30;84.00;;;;;;5070680;28;20094;-35
2022/09/07 02:53:53;;;;;;;1.65;1.13;;;18.30;84.00;;;;;;5072096;28;20032;-35
2022/09/07 02:56:40;;;;;;;1.65;1.00;;;18.30;84.00;;;;;;5072122;28;20024;-35
2022/09/07 02:59:20;;;;;;;1.52;0.85;;;18.30;84.00;;;;;;5072208;28;20016;-35
2022/09/07 03:01:59;;;;;;;2.47;1.00;;;18.30;84.00;;;;;;5072088;28;20036;-35
2022/09/07 03:04:53;;;;;;;1.65;1.00;;;18.20;84.10;;;;;;5072212;28;20028;-35
2022/09/07 03:07:32;;;;;;;3.50;1.00;;;18.20;84.10;;;;;;5072104;28;20035;-35
2022/09/07 03:10:01;;;;;;;2.13;1.05;;;18.20;84.20;;;;;;5072261;28;20013;-35
2022/09/07 03:12:43;;;;;;;2.13;1.10;;;18.20;84.20;;;;;;5072383;28;20036;-36
2022/09/07 03:15:13;;;;;;;1.50;1.00;;;18.20;84.20;;;;;;5072405;28;20356;-35
2022/09/07 03:17:40;;;;;;;2.17;1.17;;;18.20;84.10;;;;;;5071918;28;20352;-36
2022/09/07 03:20:06;;;;;;;1.15;1.05;;;18.20;84.20;;;;;;5071934;28;20460;-35
2022/09/07 03:22:32;;;;;;;1.98;1.00;;;18.30;84.20;;;;;;5071781;28;20056;-35
2022/09/07 03:24:58;;;;;;;1.60;1.27;;;18.30;84.10;;;;;;5071762;28;20028;-35
2022/09/07 03:27:23;;;;;;;2.00;1.23;;;18.30;84.10;;;;;;5071791;28;20021;-35
2022/09/07 03:29:49;;;;;;;3.58;1.13;;;18.30;84.10;;;;;;5072302;28;20376;-35
2022/09/07 03:32:14;;;;;;;1.23;1.02;;;18.30;84.10;;;;;;5072556;28;20020;-35
2022/09/07 03:34:40;;;;;;;2.97;1.30;;;18.40;84.00;;;;;;5075711;28;20036;-35
2022/09/07 03:37:06;;;;;;;1.63;1.13;;;18.40;83.90;;;;;;5075947;28;20016;-35
2022/09/07 03:39:31;;;;;;;1.80;1.10;;;18.50;83.90;;;;;;5075494;28;20430;-35
2022/09/07 03:41:57;;;;;;;1.27;1.10;;;18.50;83.80;;;;;;5074181;28;20021;-38
2022/09/07 03:44:22;;;;;;;1.58;1.10;;;18.60;83.80;;;;;;5075796;28;20036;-35
2022/09/07 03:46:48;;;;;;;3.20;1.55;;;18.60;83.70;;;;;;5075563;28;20079;-36
2022/09/07 03:49:14;;;;;;;1.88;1.30;;;18.60;83.70;;;;;;5075560;28;20070;-35
2022/09/07 03:51:40;;;;;;;1.73;0.95;;;18.70;83.70;;;;;;5075725;28;20193;-36
2022/09/07 03:54:05;;;;;;;1.33;1.23;;;18.80;83.70;;;;;;5075858;28;20064;-36
2022/09/07 03:56:31;;;;;;;2.15;1.45;;;18.80;83.70;;;;;;5075338;28;20028;-35
2022/09/07 03:58:57;;;;;;;1.85;1.40;;;18.90;83.70;;;;;;5074842;28;20357;-35
2022/09/07 04:01:25;;;;;;;2.08;1.40;;;18.90;83.60;;;;;;5075046;28;20021;-33
2022/09/07 04:03:51;;;;;;;1.27;1.13;;;19.00;83.70;;;;;;5074889;28;20016;-35
2022/09/07 04:06:18;;;;;;;3.15;1.45;;;19.10;83.70;;;;;;5074937;28;20017;-35
2022/09/07 04:08:44;;;;;;;2.15;1.52;;;19.10;83.70;;;;;;5073744;28;20016;-35
2022/09/07 04:11:13;;;;;;;2.60;1.30;;;19.10;83.70;;;;;;5075112;28;20108;-35
2022/09/07 04:13:39;;;;;;;1.83;1.48;;;19.20;83.70;;;;;;5075015;28;20019;-35
2022/09/07 04:16:27;;;;;;;3.78;1.35;;;19.20;83.80;;;;;;5075699;28;20027;-35
2022/09/07 04:18:53;;;;;;;2.08;1.70;;;19.20;83.80;;;;;;5073453;28;20448;-35
2022/09/07 04:21:22;;;;;;;2.38;1.60;;;19.30;83.70;;;;;;5074620;28;20112;-34
2022/09/07 04:23:48;;;;;;;1.65;1.48;;;19.30;83.70;;;;;;5074428;28;20031;-35
2022/09/07 04:26:22;;;;;;;2.50;1.50;;;19.30;83.60;;;;;;5073247;28;20032;-34
2022/09/07 04:28:48;;;;;;;3.95;1.60;;;19.30;83.60;;;;;;5074933;28;20024;-35
2022/09/07 04:31:15;;;;;;;2.42;1.60;;;19.30;83.60;;;;;;5075408;28;20059;-34
2022/09/07 04:33:42;;;;;;;2.92;1.90;;;19.30;83.60;;;;;;5074771;28;20107;-39
2022/09/07 04:36:08;;;;;;;2.80;2.20;;;19.40;83.70;;;;;;5074667;28;20020;-35
2022/09/07 04:38:34;;;;;;;3.03;2.65;;;19.40;83.60;;;;;;5074616;28;20021;-35
2022/09/07 04:41:02;;;;;;;3.17;2.85;;;19.40;83.60;;;;;;5074250;28;20142;-35
2022/09/07 04:43:28;;;;;;;4.18;3.08;;;19.40;83.50;;;;;;5073756;28;20021;-35
2022/09/07 04:45:54;;;;;;;4.03;3.33;;;19.40;83.50;;;;;;5074157;28;20050;-35
2022/09/07 04:48:20;;;;;;;7.68;3.42;;;19.40;83.50;;;;;;5074239;28;20107;-35
2022/09/07 04:50:46;;;;;;;3.58;3.28;;;19.40;83.50;;;;;;5074412;28;20025;-36
2022/09/07 04:53:11;;;;;;;3.97;3.33;;;19.40;83.50;;;;;;5074710;28;20024;-34
2022/09/07 04:55:37;;;;;;;3.88;3.30;;;19.40;83.50;;;;;;5074550;28;20154;-35
2022/09/07 04:58:02;;;;;;;5.13;4.35;;;19.40;83.50;;;;;;5074623;28;20028;-35
2022/09/07 05:00:28;;;;;;;4.35;3.95;;;19.40;83.60;;;;;;5073362;28;20032;-35
2022/09/07 05:02:54;;;;;;;4.57;3.85;;;19.40;83.60;;;;;;5073027;28;20021;-35
2022/09/07 05:05:19;;;;;;;4.35;3.90;;;19.40;83.60;;;;;;5074178;28;20147;-35
2022/09/07 05:07:45;;;;;;;5.00;4.43;;;19.40;83.60;;;;;;5074694;28;20028;-35
2022/09/07 05:10:10;;;;;;;6.35;4.43;;;19.40;83.70;;;;;;5074308;28;20065;-37
2022/09/07 05:12:36;;;;;;;5.53;4.70;;;19.40;83.80;;;;;;5074532;28;20024;-36
2022/09/07 05:15:02;;;;;;;5.50;4.63;;;19.40;83.90;;;;;;5074100;28;20028;-45
2022/09/07 05:17:29;;;;;;;6.18;4.82;;;19.30;83.90;;;;;;5074410;28;20081;-37
2022/09/07 05:19:55;;;;;;;5.97;4.97;;;19.30;84.00;;;;;;5074165;28;20039;-35
2022/09/07 05:22:21;;;;;;;5.10;4.60;;;19.30;84.00;;;;;;5074116;28;20020;-35
2022/09/07 05:24:47;;;;;;;6.25;5.30;;;19.30;84.00;;;;;;5073930;28;20085;-35
2022/09/07 05:27:12;;;;;;;5.80;5.03;;;19.20;84.00;;;;;;5074059;28;20559;-34
2022/09/07 05:29:38;;;;;;;6.15;5.55;;;19.20;84.10;;;;;;5073787;28;20028;-36
2022/09/07 05:32:04;;;;;;;5.30;4.80;;;19.20;84.20;;;;;;5073662;28;20353;-36
2022/09/07 05:34:29;;;;;;;6.53;5.47;;;19.20;84.20;;;;;;5073686;28;20048;-35
2022/09/07 05:36:55;;;;;;;6.00;5.38;;;19.20;84.20;;;;;;5073504;28;20039;-35
2022/09/07 05:39:21;;;;;;;6.32;5.57;;;19.10;84.20;;;;;;5074106;28;20042;-35
2022/09/07 05:41:47;;;;;;;5.53;4.72;;;19.20;84.30;;;;;;5073463;28;20105;-37
2022/09/07 05:44:13;;;;;;;6.95;5.20;;;19.20;84.20;;;;;;5073354;28;20368;-44
2022/09/07 05:46:39;;;;;;;5.30;4.65;;;19.20;84.00;;;;;;5073067;28;20041;-35
2022/09/07 05:49:06;;;;;;;5.63;5.03;;;19.30;83.90;;;;;;5073237;28;20493;-35
2022/09/07 05:51:32;;;;;;;5.88;4.95;;;19.30;83.80;;;;;;5073586;28;20380;-45
2022/09/07 05:53:58;;;;;;;6.25;5.00;;;19.30;83.60;;;;;;5073052;28;20032;-36
2022/09/07 05:56:24;;;;;;;5.68;4.05;;;19.40;83.60;;;;;;5072546;28;20471;-35
2022/09/07 05:58:50;;;;;;;5.53;4.35;;;19.40;83.30;;;;;;5072877;28;20439;-34
2022/09/07 06:01:16;;;;;;;5.78;4.93;;;19.40;83.00;;;;;;5072917;28;20040;-34
2022/09/07 06:03:43;;;;;;;5.82;5.32;;;19.40;83.20;;;;;;5072834;28;20017;-36
2022/09/07 06:06:10;;;;;;;7.45;5.68;;;19.40;83.10;;;;;;5072917;28;20456;-35
2022/09/07 06:08:37;;;;;;;6.45;5.75;;;19.40;83.20;;;;;;5072892;28;20021;-35
2022/09/07 06:11:10;;;;;;;6.68;5.90;;;19.50;83.30;;;;;;5072860;28;20036;-35
2022/09/07 06:13:37;;;;;;;6.38;5.75;;;19.50;83.20;;;;;;5072586;28;20025;-35
2022/09/07 06:16:04;;;;;;;7.32;6.25;;;19.50;83.20;;;;;;5072433;28;20104;-36
2022/09/07 06:18:31;;;;;;;7.82;6.20;;;19.50;83.10;;;;;;5072586;28;20086;-35
2022/09/07 06:21:05;;;;;;;8.35;6.47;;;19.50;83.00;;;;;;5072782;28;20016;-36
2022/09/07 06:23:31;;;;;;;;;;;19.50;83.00;;;;;;5073036;28;20545;-36
2022/09/07 06:25:56;;;;;;;6.55;5.82;;;19.60;83.00;;;;;;5072391;28;19995;-43
2022/09/07 06:28:33;;;;;;;7.50;6.70;;;19.60;82.90;;;;;;5072155;28;20096;-36
2022/09/07 06:31:00;;;;;;;7.63;6.82;;;19.60;82.70;;;;;;5072068;28;20039;-35
2022/09/07 06:33:26;;;;;;;7.20;6.50;;;19.60;82.70;;;;;;5072744;28;20333;-35
2022/09/07 06:36:12;;;;;;;8.20;6.68;;;19.60;82.70;;;;;;5072214;28;20081;-36
2022/09/07 06:38:38;;;;;;;9.10;6.90;;;19.60;82.80;;;;;;5072326;28;20039;-36
2022/09/07 06:41:09;;;;;;;7.28;6.50;;;19.50;82.70;;;;;;5072498;28;20017;-36
2022/09/07 06:43:35;;;;;;;7.47;6.55;;;19.60;82.80;;;;;;5072524;28;20021;-36
2022/09/07 06:46:01;;;;;;;7.50;6.75;;;19.50;82.80;;;;;;5072155;28;20048;-36
2022/09/07 06:48:27;;;;;;;7.13;6.45;;;19.50;82.70;;;;;;5071008;28;20484;-36
2022/09/07 06:51:00;;;;;;;7.13;6.28;;;19.50;82.70;;;;;;5072097;28;20097;-37
2022/09/07 06:53:31;;;;;;;7.10;6.40;;;19.50;82.80;;;;;;5072354;28;20028;-46
2022/09/07 06:55:57;;;;;;;8.25;6.13;;;19.50;82.80;;;;;;5073080;28;20530;-37
2022/09/07 06:58:26;;;;;;;7.55;5.97;;;19.50;82.80;;;;;;5072207;28;20024;-35
2022/09/07 07:00:53;;;;;;;6.32;5.72;;;19.50;82.70;;;;;;5072215;28;20112;-36
2022/09/07 07:03:19;;;;;;;7.15;6.38;;;19.50;82.50;;;;;;5072256;28;20028;-38
2022/09/07 07:05:55;;;;;;;7.15;6.25;;;19.50;82.40;;;;;;5072184;28;20032;-36
2022/09/07 07:08:23;;;;;;;6.75;6.05;;;19.50;82.50;;;;;;5075885;28;20495;-35
2022/09/07 07:10:49;;;;;;;7.10;6.40;;;19.50;82.50;;;;;;5076513;28;20048;-36
2022/09/07 07:13:16;;;;;;;8.10;6.93;;;19.50;82.30;;;;;;5076105;28;20021;-37
2022/09/07 07:15:42;;;;;;;7.75;6.97;;;19.40;82.30;;;;;;5076615;28;20031;-36
2022/09/07 07:18:08;;;;;;;7.18;6.47;;;19.40;82.40;;;;;;5076166;28;20507;-36
2022/09/07 07:20:35;;;;;;;6.65;6.05;;;19.50;82.40;;;;;;5075978;28;20111;-36
2022/09/07 07:23:01;;;;;;;7.35;6.50;;;19.50;82.20;;;;;;5075736;28;20082;-36
2022/09/07 07:25:27;;;;;;;8.05;6.38;;;19.60;82.00;;;;;;5074285;28;20029;-35
2022/09/07 07:27:53;;;;;;;7.32;6.43;;;19.70;82.00;;;;;;5076009;28;20024;-36
2022/09/07 07:30:19;;;;;;;7.32;6.63;;;19.70;81.90;;;;;;5075580;28;20032;-35
2022/09/07 07:32:46;;;;;;;7.43;6.70;;;19.80;81.80;;;;;;5057539;28;20085;-36
2022/09/07 07:35:12;;;;;;;7.50;6.70;;;19.80;81.70;;;;;;5075440;28;20044;-35
2022/09/07 07:37:38;;;;;;;7.28;6.43;;;19.90;81.80;;;;;;5075709;28;20035;-37
2022/09/07 07:40:09;;;;;;;7.88;6.95;;;19.90;81.50;;;;;;5074104;28;20025;-36
2022/09/07 07:42:37;;;;;;;8.27;7.47;;;19.90;81.40;;;;;;5075838;28;20024;-36
2022/09/07 07:45:03;;;;;;;9.75;7.45;;;19.90;81.20;;;;;;5075422;28;20452;-49
2022/09/07 07:47:29;;;;;;;7.65;6.45;;;19.90;81.10;;;;;;5073562;28;20040;-35
2022/09/07 07:49:54;;;;;;;8.30;6.88;;;19.90;81.20;;;;;;5075062;28;20093;-36
2022/09/07 07:52:20;;;;;;;7.57;6.68;;;19.90;81.20;;;;;;5075502;28;20034;-37
2022/09/07 07:54:46;;;;;;;8.43;7.55;;;19.90;81.30;;;;;;5073562;28;20374;-36
2022/09/07 07:57:12;;;;;;;7.80;6.65;;;19.90;81.20;;;;;;5074793;28;20025;-37
2022/09/07 07:59:38;;;;;;;8.13;6.78;;;20.00;81.20;;;;;;5075059;28;20104;-36
2022/09/07 08:02:05;;;;;;;8.13;6.72;;;20.00;81.10;;;;;;5074913;28;20103;-36
2022/09/07 08:04:32;;;;;;;7.88;7.15;;;20.00;80.90;;;;;;5074709;28;20032;-35
2022/09/07 08:06:58;;;;;;;9.32;7.55;;;20.10;81.00;;;;;;5074897;28;20067;-42
2022/09/07 08:09:24;;;;;;;9.90;7.65;;;20.20;80.80;;;;;;5075205;28;20020;-36
2022/09/07 08:11:50;;;;;;;7.15;6.45;;;20.30;80.50;;;;;;5074698;28;20032;-36
2022/09/07 08:14:15;;;;;;;8.82;7.63;;;20.30;80.50;;;;;;5074941;28;20024;-35
2022/09/07 08:16:44;;;;;;;8.38;7.40;;;20.30;80.30;;;;;;5074562;28;20388;-36
2022/09/07 08:19:10;;;;;;;8.73;7.82;;;20.30;80.30;;;;;;5073774;28;20036;-38
2022/09/07 08:21:36;;;;;;;8.93;7.65;;;20.40;80.20;;;;;;5074460;28;20033;-36
2022/09/07 08:24:02;;;;;;;10.65;8.63;;;20.40;80.10;;;;;;5074697;28;20498;-36
2022/09/07 08:26:28;;;;;;;10.98;9.35;;;20.30;80.10;;;;;;5074880;28;20031;-43
2022/09/07 08:28:54;;;;;;;10.85;8.60;;;20.40;80.30;;;;;;5074702;28;20028;-35
2022/09/07 08:31:20;;;;;;;9.75;8.75;;;20.40;80.70;;;;;;5074291;28;20066;-33
2022/09/07 08:33:45;;;;;;;9.43;8.48;;;20.50;80.10;;;;;;5074392;28;20048;-35
2022/09/07 08:36:20;;;;;;;12.45;9.55;;;20.60;80.00;;;;;;5074573;28;20479;-35
2022/09/07 08:38:47;;;;;;;10.30;8.32;;;20.60;79.70;;;;;;5072954;28;20514;-36
2022/09/07 08:41:46;;;;;;;9.57;8.43;;;20.60;79.70;;;;;;5074171;28;20047;-35
2022/09/07 08:44:26;;;;;;;9.82;8.65;;;20.70;79.60;;;;;;5072358;28;20028;-37
2022/09/07 08:46:55;;;;;;;9.30;8.23;;;20.60;79.50;;;;;;5072554;28;20044;-36
2022/09/07 08:49:39;;;;;;;9.63;8.63;;;20.60;79.60;;;;;;5074140;28;20380;-35
2022/09/07 08:52:23;;;;;;;12.18;10.23;;;20.70;79.50;;;;;;5074377;28;20025;-36
2022/09/07 08:55:10;;;;;;;11.02;9.50;;;20.70;80.00;;;;;;5074474;28;20038;-36
2022/09/07 08:57:40;;;;;;;9.13;8.25;;;20.70;79.30;;;;;;5072970;28;20028;-36
2022/09/07 09:00:15;;;;;;;9.63;8.63;;;20.80;79.30;;;;;;5074019;28;20029;-35
2022/09/07 09:02:41;;;;;;;9.95;8.95;;;20.80;79.20;;;;;;5073866;28;20099;-37
2022/09/07 09:05:24;;;;;;;10.85;9.20;;;20.90;79.00;;;;;;5072074;28;20115;-36
2022/09/07 09:08:30;;;;;;;9.25;8.35;;;20.90;79.00;;;;;;5072199;28;20044;-36
2022/09/07 09:11:10;;;;;;;9.10;8.18;;;20.90;78.90;;;;;;5073858;28;20024;-37
2022/09/07 09:14:27;;;;;;;8.50;7.68;;;21.00;78.80;;;;;;5073677;28;20032;-37
2022/09/07 09:17:15;;;;;;;9.00;7.80;;;21.00;78.70;;;;;;5073783;28;20103;-36
2022/09/07 09:19:50;;;;;;;9.73;8.73;;;21.10;78.50;;;;;;5073162;28;20044;-36
2022/09/07 09:22:22;;;;;;;10.63;7.60;;;21.00;78.40;;;;;;5073505;28;20017;-36
2022/09/07 09:24:59;;;;;;;9.77;8.77;;;21.00;78.50;;;;;;5073255;28;20032;-37
2022/09/07 09:27:24;;;;;;;8.70;7.78;;;21.00;78.50;;;;;;5073272;28;20103;-36
2022/09/07 09:29:50;;;;;;;10.40;8.68;;;21.10;78.50;;;;;;5072782;28;20499;-35
2022/09/07 09:32:32;;;;;;;8.95;8.05;;;21.20;78.30;;;;;;5072605;28;20391;-35
2022/09/07 09:35:04;;;;;;;8.97;8.07;;;21.20;78.10;;;;;;5072982;28;20020;-36
2022/09/07 09:37:35;;;;;;;8.60;7.50;;;21.30;78.10;;;;;;5073313;28;20036;-34
2022/09/07 09:40:00;;;;;;;8.55;7.70;;;21.40;78.00;;;;;;5073031;28;20028;-35
2022/09/07 09:42:31;;;;;;;8.27;7.20;;;21.40;77.80;;;;;;5072898;28;20103;-34
2022/09/07 09:45:21;;;;;;;8.07;7.30;;;21.50;77.50;;;;;;5072628;28;20033;-35
2022/09/07 09:47:52;;;;;;;9.02;7.68;;;21.50;77.30;;;;;;5072697;28;20067;-35
2022/09/07 09:50:39;;;;;;;8.57;7.38;;;21.60;77.10;;;;;;5072756;28;20039;-35
2022/09/07 09:53:06;;;;;;;8.02;7.22;;;21.60;76.90;;;;;;5072568;28;20024;-34
2022/09/07 09:55:35;;;;;;;8.50;6.80;;;21.70;76.80;;;;;;5072677;28;20036;-34
2022/09/07 09:58:23;;;;;;;7.65;6.85;;;21.70;76.60;;;;;;5073270;28;20020;-35
2022/09/07 10:01:00;;;;;;;8.02;7.28;;;21.80;76.60;;;;;;5072956;28;20118;-37
2022/09/07 10:03:26;;;;;;;10.60;7.07;;;21.90;76.30;;;;;;5071139;28;20052;-35
2022/09/07 10:05:53;;;;;;;7.97;7.18;;;21.90;76.10;;;;;;5071726;28;20029;-34
2022/09/07 10:08:27;;;;;;;7.78;7.03;;;22.00;75.90;;;;;;5070909;28;20024;-34
2022/09/07 10:11:01;;;;;;;7.95;7.15;;;22.00;75.60;;;;;;5072227;28;20048;-35
2022/09/07 10:13:33;;;;;;;7.82;6.25;;;22.10;75.40;;;;;;5072222;28;20100;-34
2022/09/07 10:16:02;;;;;;;7.65;6.93;;;22.10;75.20;;;;;;5070968;28;20035;-35
2022/09/07 10:18:32;;;;;;;7.25;6.55;;;22.20;75.00;;;;;;5072240;28;20032;-36
2022/09/07 10:21:22;;;;;;;8.10;7.18;;;22.20;74.80;;;;;;5072897;28;20024;-35
2022/09/07 10:24:12;;;;;;;8.00;7.20;;;22.30;74.70;;;;;;5072398;28;20411;-36
2022/09/07 10:26:39;;;;;;;7.57;6.78;;;22.40;74.50;;;;;;5072038;28;20040;-38
2022/09/07 10:29:18;;;;;;;9.07;8.18;;;22.40;74.40;;;;;;5070820;28;20027;-36
2022/09/07 10:32:02;;;;;;;7.75;6.80;;;22.50;74.00;;;;;;5072126;28;20020;-36
2022/09/07 10:34:33;;;;;;;9.68;8.30;;;22.60;73.90;;;;;;5072060;28;20032;-34
2022/09/07 10:37:07;;;;;;;8.23;7.10;;;22.60;73.60;;;;;;5072389;28;20028;-36
2022/09/07 10:39:42;;;;;;;6.63;6.03;;;22.60;73.40;;;;;;5072567;28;20024;-35
2022/09/07 10:42:08;;;;;;;7.35;6.65;;;22.70;73.30;;;;;;5071727;28;20025;-36
2022/09/07 10:44:59;;;;;;;10.77;7.32;;;22.70;73.10;;;;;;5071881;28;20047;-35
2022/09/07 10:47:48;;;;;;;8.48;6.35;;;22.80;72.80;;;;;;5071913;28;20072;-35
2022/09/07 10:50:22;;;;;;;7.28;5.95;;;22.80;72.80;;;;;;5070785;28;20029;-34
2022/09/07 10:53:03;;;;;;;6.85;5.72;;;22.90;72.70;;;;;;5072367;28;20467;-36
2022/09/07 10:55:35;;;;;;;5.85;5.22;;;23.00;72.30;;;;;;5072141;28;20078;-36
2022/09/07 10:58:24;;;;;;;5.43;4.90;;;23.00;71.90;;;;;;5071952;28;20025;-36
2022/09/07 11:01:02;;;;;;;5.18;4.28;;;23.10;71.70;;;;;;5072137;28;20384;-35
2022/09/07 11:03:43;;;;;;;4.60;4.20;;;23.10;71.20;;;;;;5071808;28;20020;-34
2022/09/07 11:06:24;;;;;;;4.90;4.32;;;23.10;70.90;;;;;;5070436;28;20107;-35
2022/09/07 11:09:09;;;;;;;5.18;4.68;;;23.20;70.50;;;;;;5070983;28;20086;-36
2022/09/07 11:11:42;;;;;;;4.30;3.90;;;23.20;70.60;;;;;;5071820;28;20380;-35
2022/09/07 11:14:10;;;;;;;;;;;23.30;70.50;;;;;;5072623;28;20471;-35
2022/09/07 11:16:41;;;;;;;4.22;3.80;;;23.40;70.40;;;;;;5071782;28;19908;-36
2022/09/07 11:19:12;;;;;;;3.83;3.53;;;23.40;69.70;;;;;;5071581;28;20432;-35
2022/09/07 11:21:47;;;;;;;6.75;4.70;;;23.50;69.70;;;;;;5071634;28;20036;-36
2022/09/07 11:24:32;;;;;;;3.50;3.20;;;23.50;69.50;;;;;;5071460;28;20113;-34
2022/09/07 11:27:09;;;;;;;3.38;3.08;;;23.50;69.50;;;;;;5071518;28;20016;-37
2022/09/07 11:29:45;;;;;;;4.20;3.80;;;23.60;69.30;;;;;;5071428;28;20025;-34
2022/09/07 11:32:25;;;;;;;4.35;3.10;;;23.70;69.00;;;;;;5071524;28;20021;-35
2022/09/07 11:34:55;;;;;;;6.13;3.20;;;23.80;68.80;;;;;;5071438;28;20054;-36
2022/09/07 11:37:33;;;;;;;3.38;2.55;;;23.90;68.40;;;;;;5070055;28;20074;-36
2022/09/07 11:40:12;;;;;;;3.60;2.28;;;24.00;67.70;;;;;;5071615;28;20032;-36
2022/09/07 11:42:48;;;;;;;2.92;2.72;;;24.10;67.40;;;;;;5071511;28;20027;-36
2022/09/07 11:45:31;;;;;;;3.80;2.72;;;24.20;67.10;;;;;;5071391;28;20527;-35
2022/09/07 11:48:03;;;;;;;4.97;3.10;;;24.20;67.00;;;;;;5071194;28;20041;-36
2022/09/07 11:50:35;;;;;;;2.63;2.42;;;24.30;66.90;;;;;;5071524;28;20075;-35
2022/09/07 11:53:24;;;;;;;3.35;2.33;;;24.40;66.60;;;;;;5071949;28;20024;-36
2022/09/07 11:55:56;;;;;;;4.30;2.25;;;24.60;66.20;;;;;;5074623;28;20020;-36
2022/09/07 11:58:40;;;;;;;5.13;2.20;;;24.70;65.70;;;;;;5074949;28;20024;-37
2022/09/07 12:01:21;;;;;;;3.85;2.17;;;24.80;65.10;;;;;;5074807;28;20033;-37
2022/09/07 12:03:59;;;;;;;4.63;2.65;;;24.90;64.80;;;;;;5075197;28;20040;-36
2022/09/07 12:07:08;;;;;;;3.88;2.58;;;24.90;64.50;;;;;;5074767;28;20025;-35
2022/09/07 12:09:36;;;;;;;3.20;2.40;;;24.90;64.40;;;;;;5074834;28;20020;-36
2022/09/07 12:12:36;;;;;;;4.47;2.00;;;24.90;64.50;;;;;;5074885;28;20031;-36
2022/09/07 12:15:11;;;;;;;3.35;2.42;;;24.90;64.40;;;;;;5074677;28;20025;-36
2022/09/07 12:18:09;;;;;;;2.70;2.05;;;24.90;64.00;;;;;;5074907;28;20025;-36
2022/09/07 12:20:45;;;;;;;4.60;2.72;;;24.90;63.40;;;;;;5075402;28;20033;-37
2022/09/07 12:23:13;;;;;;;2.97;2.03;;;24.90;63.50;;;;;;5074607;28;20090;-36
2022/09/07 12:25:39;;;;;;;2.97;2.30;;;24.80;63.60;;;;;;5074413;28;20044;-36
2022/09/07 12:28:16;;;;;;;3.03;1.98;;;24.90;63.60;;;;;;5074538;28;20020;-36
2022/09/07 12:31:03;;;;;;;2.33;1.95;;;24.90;63.00;;;;;;5074251;28;20040;-38
2022/09/07 12:33:36;;;;;;;2.95;1.80;;;25.10;62.80;;;;;;5074505;28;20095;-36
2022/09/07 12:36:21;;;;;;;;;;;25.10;62.80;;;;;;5074749;28;20499;-36
2022/09/07 12:39:23;;;;;;;2.83;1.88;;;25.20;62.70;;;;;;5074136;28;19927;-37
2022/09/07 12:41:52;;;;;;;3.00;1.77;;;25.20;62.30;;;;;;5074140;28;20028;-36
2022/09/07 12:44:23;;;;;;;2.25;1.40;;;25.20;62.30;;;;;;5073861;28;20024;-37
2022/09/07 12:46:54;;;;;;;2.60;1.58;;;25.30;62.10;;;;;;5073920;28;20040;-37
2022/09/07 12:49:28;;;;;;;2.28;1.40;;;25.30;61.60;;;;;;5074231;28;20017;-36
2022/09/07 12:52:11;;;;;;;3.25;1.55;;;25.20;61.40;;;;;;5072696;28;20103;-36
2022/09/07 12:54:49;;;;;;;4.43;1.17;;;25.20;61.10;;;;;;5074463;28;20060;-37
2022/09/07 12:57:31;;;;;;;4.70;1.55;;;25.30;60.90;;;;;;5074392;28;20422;-35
2022/09/07 13:00:35;;;;;;;3.00;1.52;;;25.40;60.70;;;;;;5074210;28;20020;-38
2022/09/07 13:03:26;;;;;;;1.98;1.15;;;25.40;60.40;;;;;;5073949;28;20032;-37
2022/09/07 13:06:25;;;;;;;5.07;1.60;;;25.40;60.10;;;;;;5074182;28;20498;-36
2022/09/07 13:09:09;;;;;;;2.17;1.40;;;25.40;59.70;;;;;;5073936;28;20040;-37
2022/09/07 13:11:37;;;;;;;3.35;1.35;;;25.40;59.80;;;;;;5073829;28;20031;-38
2022/09/07 13:14:18;;;;;;;2.05;1.25;;;25.50;59.60;;;;;;5073737;28;20117;-37
2022/09/07 13:16:45;;;;;;;3.72;1.25;;;25.70;59.50;;;;;;5073473;28;20017;-37